Nakusp, Canada
Current Conditions -  °F | °C
As of 5:00 AM on Friday 19 Dec 2014 (Local Time) from CYRV Reporting Station
Light Snow Light Snow  
Wind Chill: -1°   Ceiling: 1000
Heat Index: -1°   Visibility: 1.5mi
Dew Point: -1°   Wind: 2mph
Humidity: 100%   Direction: NA
Pressure: 29.87"   Gusts: NA
Location:  50.24°N, 117.8°W
Report Text: CYRV 191300Z AUTO VRB02KT 1 1/2SM -SN BKN010 OVC023 M01/M01 A2987 RMK VIS VRB 1 1/4-2 1/4 PCPN 0.5MM PAST HR SLP134
Loading
Personal Weather Stations






























Interactive Weather Map New forecast layout! Learn more

10-Day Weather Forecast

Advertisements
Track Severe Weather on mobile